sensor_id;sensor_type;location;lat;lon;timestamp;pressure;altitude;pressure_sealevel;temperature;humidity
51359;BME280;37448;51.588;7.248;2023-07-22T00:01:51;100774.00;;;14.16;69.97
51359;BME280;37448;51.588;7.248;2023-07-22T00:03:52;100782.69;;;14.18;69.64
51359;BME280;37448;51.588;7.248;2023-07-22T00:06:05;100779.09;;;14.21;70.04
51359;BME280;37448;51.588;7.248;2023-07-22T00:08:06;100772.81;;;14.25;69.67
51359;BME280;37448;51.588;7.248;2023-07-22T00:10:07;100776.25;;;14.27;70.07
51359;BME280;37448;51.588;7.248;2023-07-22T00:12:08;100776.16;;;14.30;69.97
51359;BME280;37448;51.588;7.248;2023-07-22T00:14:09;100777.75;;;14.34;69.75
51359;BME280;37448;51.588;7.248;2023-07-22T00:16:09;100776.88;;;14.35;70.10
51359;BME280;37448;51.588;7.248;2023-07-22T00:18:11;100771.53;;;14.37;69.61
51359;BME280;37448;51.588;7.248;2023-07-22T00:20:11;100774.16;;;14.37;69.80
51359;BME280;37448;51.588;7.248;2023-07-22T00:22:12;100779.38;;;14.39;69.96
51359;BME280;37448;51.588;7.248;2023-07-22T00:24:12;100764.53;;;14.38;69.86
51359;BME280;37448;51.588;7.248;2023-07-22T00:26:13;100752.25;;;14.38;70.00
51359;BME280;37448;51.588;7.248;2023-07-22T00:28:14;100765.34;;;14.40;69.78
51359;BME280;37448;51.588;7.248;2023-07-22T00:30:15;100767.97;;;14.40;69.34
51359;BME280;37448;51.588;7.248;2023-07-22T00:32:15;100767.03;;;14.41;69.64
51359;BME280;37448;51.588;7.248;2023-07-22T00:34:16;100760.88;;;14.42;69.65
51359;BME280;37448;51.588;7.248;2023-07-22T00:36:16;100761.72;;;14.42;69.88
51359;BME280;37448;51.588;7.248;2023-07-22T00:38:18;100756.44;;;14.44;70.00
51359;BME280;37448;51.588;7.248;2023-07-22T00:40:19;100761.56;;;14.47;69.67
51359;BME280;37448;51.588;7.248;2023-07-22T00:42:19;100765.09;;;14.46;69.39
51359;BME280;37448;51.588;7.248;2023-07-22T00:44:20;100765.09;;;14.46;69.67
51359;BME280;37448;51.588;7.248;2023-07-22T00:46:21;100769.41;;;14.48;69.59
51359;BME280;37448;51.588;7.248;2023-07-22T00:48:22;100760.66;;;14.48;69.47
51359;BME280;37448;51.588;7.248;2023-07-22T00:50:23;100760.66;;;14.48;69.74
51359;BME280;37448;51.588;7.248;2023-07-22T00:52:24;100759.75;;;14.49;69.83
51359;BME280;37448;51.588;7.248;2023-07-22T00:54:24;100758.03;;;14.48;68.58
51359;BME280;37448;51.588;7.248;2023-07-22T00:56:25;100753.56;;;14.50;69.57
51359;BME280;37448;51.588;7.248;2023-07-22T00:58:25;100757.25;;;14.44;68.49
51359;BME280;37448;51.588;7.248;2023-07-22T01:00:26;100747.56;;;14.46;68.97
51359;BME280;37448;51.588;7.248;2023-07-22T01:02:26;100745.13;;;14.42;67.79
51359;BME280;37448;51.588;7.248;2023-07-22T01:04:27;100742.38;;;14.45;69.11
51359;BME280;37448;51.588;7.248;2023-07-22T01:06:28;100740.59;;;14.45;68.87
51359;BME280;37448;51.588;7.248;2023-07-22T01:08:30;100742.25;;;14.48;69.39
51359;BME280;37448;51.588;7.248;2023-07-22T01:10:30;100731.88;;;14.45;69.45
51359;BME280;37448;51.588;7.248;2023-07-22T01:12:31;100726.63;;;14.45;69.39
51359;BME280;37448;51.588;7.248;2023-07-22T01:14:36;100734.53;;;14.43;69.28
51359;BME280;37448;51.588;7.248;2023-07-22T01:16:37;100733.69;;;14.43;69.73
51359;BME280;37448;51.588;7.248;2023-07-22T01:18:37;100735.53;;;14.41;69.72
51359;BME280;37448;51.588;7.248;2023-07-22T01:20:39;100732.94;;;14.39;69.71
51359;BME280;37448;51.588;7.248;2023-07-22T01:22:41;100733.00;;;14.38;69.23
51359;BME280;37448;51.588;7.248;2023-07-22T01:24:43;100731.38;;;14.33;69.76
51359;BME280;37448;51.588;7.248;2023-07-22T01:26:44;100727.94;;;14.31;69.53
51359;BME280;37448;51.588;7.248;2023-07-22T01:28:44;100732.41;;;14.29;69.66
51359;BME280;37448;51.588;7.248;2023-07-22T01:30:45;100725.44;;;14.28;69.79
51359;BME280;37448;51.588;7.248;2023-07-22T01:32:46;100718.47;;;14.27;69.60
51359;BME280;37448;51.588;7.248;2023-07-22T01:34:47;100724.59;;;14.28;69.65
51359;BME280;37448;51.588;7.248;2023-07-22T01:36:48;100732.47;;;14.28;69.67
51359;BME280;37448;51.588;7.248;2023-07-22T01:38:48;100736.06;;;14.25;69.38
51359;BME280;37448;51.588;7.248;2023-07-22T01:40:49;100729.09;;;14.24;69.81
51359;BME280;37448;51.588;7.248;2023-07-22T01:42:49;100736.94;;;14.26;68.87
51359;BME280;37448;51.588;7.248;2023-07-22T01:44:50;100726.47;;;14.24;69.74
51359;BME280;37448;51.588;7.248;2023-07-22T01:46:50;100734.38;;;14.23;69.84
51359;BME280;37448;51.588;7.248;2023-07-22T01:48:51;100733.50;;;14.24;69.98
51359;BME280;37448;51.588;7.248;2023-07-22T01:50:51;100730.88;;;14.24;69.32
51359;BME280;37448;51.588;7.248;2023-07-22T01:52:52;100729.09;;;14.24;69.70
51359;BME280;37448;51.588;7.248;2023-07-22T01:54:52;100726.47;;;14.24;70.09
51359;BME280;37448;51.588;7.248;2023-07-22T01:56:53;100728.13;;;14.27;70.01
51359;BME280;37448;51.588;7.248;2023-07-22T01:58:53;100723.00;;;14.24;68.99
51359;BME280;37448;51.588;7.248;2023-07-22T02:00:53;100731.72;;;14.24;69.93
51359;BME280;37448;51.588;7.248;2023-07-22T02:02:54;100727.25;;;14.26;69.57
51359;BME280;37448;51.588;7.248;2023-07-22T02:04:54;100726.34;;;14.27;69.63
51359;BME280;37448;51.588;7.248;2023-07-22T02:06:55;100722.00;;;14.26;69.26
51359;BME280;37448;51.588;7.248;2023-07-22T02:08:55;100722.94;;;14.25;69.15
51359;BME280;37448;51.588;7.248;2023-07-22T02:11:03;100727.25;;;14.26;69.63
51359;BME280;37448;51.588;7.248;2023-07-22T02:13:04;100722.88;;;14.27;69.61
51359;BME280;37448;51.588;7.248;2023-07-22T02:15:05;100722.94;;;14.25;69.50
51359;BME280;37448;51.588;7.248;2023-07-22T02:17:05;100718.59;;;14.24;69.62
51359;BME280;37448;51.588;7.248;2023-07-22T02:19:09;100716.88;;;14.23;69.13
51359;BME280;37448;51.588;7.248;2023-07-22T02:21:14;100722.13;;;14.23;69.62
51359;BME280;37448;51.588;7.248;2023-07-22T02:23:15;100719.53;;;14.21;69.84
51359;BME280;37448;51.588;7.248;2023-07-22T02:25:15;100716.06;;;14.21;69.51
51359;BME280;37448;51.588;7.248;2023-07-22T02:27:15;100716.06;;;14.21;69.57
51359;BME280;37448;51.588;7.248;2023-07-22T02:29:17;100715.28;;;14.19;69.22
51359;BME280;37448;51.588;7.248;2023-07-22T02:31:19;100710.03;;;14.19;69.60
51359;BME280;37448;51.588;7.248;2023-07-22T02:33:21;100715.38;;;14.16;70.19
51359;BME280;37448;51.588;7.248;2023-07-22T02:35:25;100711.09;;;14.13;69.36
51359;BME280;37448;51.588;7.248;2023-07-22T02:37:26;100710.25;;;14.13;69.80
51359;BME280;37448;51.588;7.248;2023-07-22T02:39:26;100715.50;;;14.13;69.96
51359;BME280;37448;51.588;7.248;2023-07-22T02:41:26;100708.56;;;14.10;69.62
51359;BME280;37448;51.588;7.248;2023-07-22T02:43:27;100712.88;;;14.13;70.05
51359;BME280;37448;51.588;7.248;2023-07-22T02:45:27;100712.94;;;14.10;69.40
51359;BME280;37448;51.588;7.248;2023-07-22T02:47:28;100715.50;;;14.13;69.84
51359;BME280;37448;51.588;7.248;2023-07-22T02:49:28;100714.59;;;14.14;70.11
51359;BME280;37448;51.588;7.248;2023-07-22T02:51:29;100714.59;;;14.14;69.57
51359;BME280;37448;51.588;7.248;2023-07-22T02:53:29;100722.47;;;14.14;69.61
51359;BME280;37448;51.588;7.248;2023-07-22T02:55:30;100718.94;;;14.15;69.88
51359;BME280;37448;51.588;7.248;2023-07-22T02:57:30;100716.31;;;14.15;69.55
51359;BME280;37448;51.588;7.248;2023-07-22T02:59:32;100718.13;;;14.13;69.65
51359;BME280;37448;51.588;7.248;2023-07-22T03:01:33;100719.72;;;14.17;69.97
51359;BME280;37448;51.588;7.248;2023-07-22T03:03:33;100723.25;;;14.16;69.51
51359;BME280;37448;51.588;7.248;2023-07-22T03:05:34;100727.59;;;14.17;69.52
51359;BME280;37448;51.588;7.248;2023-07-22T03:07:35;100723.16;;;14.19;69.73
51359;BME280;37448;51.588;7.248;2023-07-22T03:09:36;100727.50;;;14.20;69.90
51359;BME280;37448;51.588;7.248;2023-07-22T03:11:36;100729.19;;;14.21;69.30
51359;BME280;37448;51.588;7.248;2023-07-22T03:13:37;100726.56;;;14.21;69.53
51359;BME280;37448;51.588;7.248;2023-07-22T03:15:37;100730.03;;;14.21;69.46
51359;BME280;37448;51.588;7.248;2023-07-22T03:17:38;100727.50;;;14.20;68.84
51359;BME280;37448;51.588;7.248;2023-07-22T03:19:39;100720.53;;;14.19;68.86
51359;BME280;37448;51.588;7.248;2023-07-22T03:21:40;100722.00;;;14.26;69.30
51359;BME280;37448;51.588;7.248;2023-07-22T03:23:40;100731.69;;;14.26;69.17
51359;BME280;37448;51.588;7.248;2023-07-22T03:25:41;100722.94;;;14.25;69.36
51359;BME280;37448;51.588;7.248;2023-07-22T03:27:41;100728.97;;;14.27;69.22
51359;BME280;37448;51.588;7.248;2023-07-22T03:29:41;100732.53;;;14.26;69.26
51359;BME280;37448;51.588;7.248;2023-07-22T03:31:42;100731.69;;;14.26;69.17
51359;BME280;37448;51.588;7.248;2023-07-22T03:33:42;100732.53;;;14.26;69.82
51359;BME280;37448;51.588;7.248;2023-07-22T03:35:46;100735.94;;;14.28;69.99
51359;BME280;37448;51.588;7.248;2023-07-22T03:37:46;100742.81;;;14.32;70.00
51359;BME280;37448;51.588;7.248;2023-07-22T03:39:47;100728.88;;;14.30;70.05
51359;BME280;37448;51.588;7.248;2023-07-22T03:41:47;100725.41;;;14.30;69.34
51359;BME280;37448;51.588;7.248;2023-07-22T03:43:48;100730.56;;;14.31;70.14
51359;BME280;37448;51.588;7.248;2023-07-22T03:45:48;100726.25;;;14.30;69.43
51359;BME280;37448;51.588;7.248;2023-07-22T03:47:55;100731.38;;;14.33;70.21
51359;BME280;37448;51.588;7.248;2023-07-22T03:49:56;100727.91;;;14.33;69.88
51359;BME280;37448;51.588;7.248;2023-07-22T03:51:56;100736.63;;;14.33;69.89
51359;BME280;37448;51.588;7.248;2023-07-22T03:53:57;100730.56;;;14.31;69.30
51359;BME280;37448;51.588;7.248;2023-07-22T03:55:57;100735.00;;;14.31;69.29
51359;BME280;37448;51.588;7.248;2023-07-22T03:57:58;100733.16;;;14.33;70.00
51359;BME280;37448;51.588;7.248;2023-07-22T03:59:58;100730.56;;;14.31;69.49
51359;BME280;37448;51.588;7.248;2023-07-22T04:01:58;100736.59;;;14.35;69.81
51359;BME280;37448;51.588;7.248;2023-07-22T04:03:59;100733.91;;;14.37;70.10
51359;BME280;37448;51.588;7.248;2023-07-22T04:05:59;100735.63;;;14.38;69.80
51359;BME280;37448;51.588;7.248;2023-07-22T04:08:00;100744.34;;;14.38;69.28
51359;BME280;37448;51.588;7.248;2023-07-22T04:10:00;100732.13;;;14.37;69.23
51359;BME280;37448;51.588;7.248;2023-07-22T04:12:01;100734.72;;;14.39;70.03
51359;BME280;37448;51.588;7.248;2023-07-22T04:14:02;100734.72;;;14.39;69.52
51359;BME280;37448;51.588;7.248;2023-07-22T04:16:02;100732.94;;;14.39;69.42
51359;BME280;37448;51.588;7.248;2023-07-22T04:18:03;100739.91;;;14.40;69.29
51359;BME280;37448;51.588;7.248;2023-07-22T04:20:04;100739.88;;;14.42;69.53
51359;BME280;37448;51.588;7.248;2023-07-22T04:22:05;100735.63;;;14.38;69.08
51359;BME280;37448;51.588;7.248;2023-07-22T04:24:06;100740.88;;;14.38;68.36
51359;BME280;37448;51.588;7.248;2023-07-22T04:26:07;100740.78;;;14.41;68.87
51359;BME280;37448;51.588;7.248;2023-07-22T04:28:08;100740.78;;;14.41;68.91
51359;BME280;37448;51.588;7.248;2023-07-22T04:30:09;100738.06;;;14.42;69.14
51359;BME280;37448;51.588;7.248;2023-07-22T04:32:09;100738.94;;;14.43;69.28
51359;BME280;37448;51.588;7.248;2023-07-22T04:34:10;100737.13;;;14.45;69.34
51359;BME280;37448;51.588;7.248;2023-07-22T04:36:12;100742.25;;;14.48;69.14
51359;BME280;37448;51.588;7.248;2023-07-22T04:38:13;100746.59;;;14.49;68.66
51359;BME280;37448;51.588;7.248;2023-07-22T04:40:13;100741.31;;;14.50;68.25
51359;BME280;37448;51.588;7.248;2023-07-22T04:42:17;100738.59;;;14.52;68.81
51359;BME280;37448;51.588;7.248;2023-07-22T04:44:19;100737.81;;;14.50;68.75
51359;BME280;37448;51.588;7.248;2023-07-22T04:46:19;100738.72;;;14.49;68.22
51359;BME280;37448;51.588;7.248;2023-07-22T04:48:21;100742.16;;;14.51;67.86
51359;BME280;37448;51.588;7.248;2023-07-22T04:50:23;100743.81;;;14.54;67.50
51359;BME280;37448;51.588;7.248;2023-07-22T04:52:23;100738.47;;;14.55;68.45
51359;BME280;37448;51.588;7.248;2023-07-22T04:54:24;100747.28;;;14.54;67.13
51359;BME280;37448;51.588;7.248;2023-07-22T04:56:24;100737.56;;;14.56;67.85
51359;BME280;37448;51.588;7.248;2023-07-22T04:58:25;100747.00;;;14.62;67.79
51359;BME280;37448;51.588;7.248;2023-07-22T05:00:25;100740.91;;;14.61;66.73
51359;BME280;37448;51.588;7.248;2023-07-22T05:02:26;100738.38;;;14.58;67.13
51359;BME280;37448;51.588;7.248;2023-07-22T05:04:27;100739.75;;;14.69;68.27
51359;BME280;37448;51.588;7.248;2023-07-22T05:06:28;100745.84;;;14.71;67.90
51359;BME280;37448;51.588;7.248;2023-07-22T05:08:29;100738.72;;;14.74;67.64
51359;BME280;37448;51.588;7.248;2023-07-22T05:10:29;100749.03;;;14.79;68.14
51359;BME280;37448;51.588;7.248;2023-07-22T05:12:29;100745.50;;;14.80;67.66
51359;BME280;37448;51.588;7.248;2023-07-22T05:14:30;100741.91;;;14.83;67.80
51359;BME280;37448;51.588;7.248;2023-07-22T05:16:30;100748.03;;;14.83;66.92
51359;BME280;37448;51.588;7.248;2023-07-22T05:18:30;100747.13;;;14.84;67.56
51359;BME280;37448;51.588;7.248;2023-07-22T05:20:31;100737.41;;;14.86;67.02
51359;BME280;37448;51.588;7.248;2023-07-22T05:22:32;100749.75;;;14.84;66.21
51359;BME280;37448;51.588;7.248;2023-07-22T05:24:33;100747.78;;;14.89;67.68
51359;BME280;37448;51.588;7.248;2023-07-22T05:26:33;100754.75;;;14.90;67.60
51359;BME280;37448;51.588;7.248;2023-07-22T05:28:33;100754.66;;;14.93;67.59
51359;BME280;37448;51.588;7.248;2023-07-22T05:30:34;100752.94;;;14.92;67.84
51359;BME280;37448;51.588;7.248;2023-07-22T05:32:35;100750.19;;;14.96;67.85
51359;BME280;37448;51.588;7.248;2023-07-22T05:34:35;100750.19;;;14.96;67.01
51359;BME280;37448;51.588;7.248;2023-07-22T05:36:35;100752.00;;;14.93;66.47
51359;BME280;37448;51.588;7.248;2023-07-22T05:38:36;100751.78;;;15.00;67.80
51359;BME280;37448;51.588;7.248;2023-07-22T05:40:36;100750.94;;;14.99;66.96
51359;BME280;37448;51.588;7.248;2023-07-22T05:42:37;100754.25;;;15.04;67.62
51359;BME280;37448;51.588;7.248;2023-07-22T05:44:37;100759.41;;;15.06;66.93
51359;BME280;37448;51.588;7.248;2023-07-22T05:46:37;100748.81;;;15.09;67.43
51359;BME280;37448;51.588;7.248;2023-07-22T05:48:38;100754.53;;;15.19;67.50
51359;BME280;37448;51.588;7.248;2023-07-22T05:50:39;100751.63;;;15.27;67.28
51359;BME280;37448;51.588;7.248;2023-07-22T05:52:39;100744.28;;;15.35;67.37
51359;BME280;37448;51.588;7.248;2023-07-22T05:54:40;100750.22;;;15.40;66.97
51359;BME280;37448;51.588;7.248;2023-07-22T05:56:40;100752.91;;;15.39;65.41
51359;BME280;37448;51.588;7.248;2023-07-22T05:58:41;100758.13;;;15.40;65.21
51359;BME280;37448;51.588;7.248;2023-07-22T06:00:41;100766.94;;;15.39;65.26
51359;BME280;37448;51.588;7.248;2023-07-22T06:02:42;100766.19;;;15.35;65.57
51359;BME280;37448;51.588;7.248;2023-07-22T06:04:42;100759.03;;;15.39;66.25
51359;BME280;37448;51.588;7.248;2023-07-22T06:06:42;100757.19;;;15.41;64.30
51359;BME280;37448;51.588;7.248;2023-07-22T06:08:43;100759.09;;;15.60;65.00
51359;BME280;37448;51.588;7.248;2023-07-22T06:10:43;100761.41;;;15.90;65.08
51359;BME280;37448;51.588;7.248;2023-07-22T06:12:44;100752.84;;;16.26;65.10
51359;BME280;37448;51.588;7.248;2023-07-22T06:14:44;100749.66;;;16.59;64.95
51359;BME280;37448;51.588;7.248;2023-07-22T06:16:44;100747.81;;;16.81;63.62
51359;BME280;37448;51.588;7.248;2023-07-22T06:18:45;100747.16;;;16.94;61.07
51359;BME280;37448;51.588;7.248;2023-07-22T06:20:45;100754.56;;;17.07;60.72
51359;BME280;37448;51.588;7.248;2023-07-22T06:22:46;100748.53;;;17.22;60.78
51359;BME280;37448;51.588;7.248;2023-07-22T06:24:46;100754.00;;;17.37;59.50
51359;BME280;37448;51.588;7.248;2023-07-22T06:26:47;100745.81;;;17.61;58.85
51359;BME280;37448;51.588;7.248;2023-07-22T06:28:47;100753.28;;;17.88;58.86
51359;BME280;37448;51.588;7.248;2023-07-22T06:30:47;100752.63;;;18.02;56.01
51359;BME280;37448;51.588;7.248;2023-07-22T06:32:48;100752.78;;;18.16;56.29
51359;BME280;37448;51.588;7.248;2023-07-22T06:34:48;100757.19;;;18.33;55.94
51359;BME280;37448;51.588;7.248;2023-07-22T06:36:49;100759.66;;;18.70;56.36
51359;BME280;37448;51.588;7.248;2023-07-22T06:38:49;100762.59;;;18.98;56.71
51359;BME280;37448;51.588;7.248;2023-07-22T06:40:52;100756.75;;;19.25;56.46
51359;BME280;37448;51.588;7.248;2023-07-22T06:42:53;100759.38;;;19.41;53.01
51359;BME280;37448;51.588;7.248;2023-07-22T06:44:53;100753.00;;;19.75;56.59
51359;BME280;37448;51.588;7.248;2023-07-22T06:46:54;100754.59;;;19.94;52.45
51359;BME280;37448;51.588;7.248;2023-07-22T06:48:54;100753.66;;;20.10;52.49
51359;BME280;37448;51.588;7.248;2023-07-22T06:50:55;100761.16;;;20.17;51.25
51359;BME280;37448;51.588;7.248;2023-07-22T06:52:55;100756.19;;;20.42;51.54
51359;BME280;37448;51.588;7.248;2023-07-22T06:54:55;100745.56;;;20.42;50.57
51359;BME280;37448;51.588;7.248;2023-07-22T06:56:56;100750.84;;;20.27;49.38
51359;BME280;37448;51.588;7.248;2023-07-22T06:58:56;100748.22;;;20.56;49.44
51359;BME280;37448;51.588;7.248;2023-07-22T07:00:57;100751.25;;;20.64;49.95
51359;BME280;37448;51.588;7.248;2023-07-22T07:02:57;100741.38;;;20.96;51.02
51359;BME280;37448;51.588;7.248;2023-07-22T07:04:57;100746.28;;;21.16;51.27
51359;BME280;37448;51.588;7.248;2023-07-22T07:06:58;100748.53;;;21.08;49.58
51359;BME280;37448;51.588;7.248;2023-07-22T07:08:59;100742.00;;;21.41;48.87
51359;BME280;37448;51.588;7.248;2023-07-22T07:11:00;100736.03;;;21.37;49.20
51359;BME280;37448;51.588;7.248;2023-07-22T07:13:01;100726.31;;;21.23;47.41
51359;BME280;37448;51.588;7.248;2023-07-22T07:15:02;100723.16;;;21.31;48.80
51359;BME280;37448;51.588;7.248;2023-07-22T07:17:03;100729.16;;;21.35;47.51
51359;BME280;37448;51.588;7.248;2023-07-22T07:19:03;100724.25;;;21.42;48.81
51359;BME280;37448;51.588;7.248;2023-07-22T07:21:03;100730.75;;;21.65;48.49
51359;BME280;37448;51.588;7.248;2023-07-22T07:23:04;100729.81;;;21.51;46.70
51359;BME280;37448;51.588;7.248;2023-07-22T07:25:04;100740.03;;;21.58;47.89
51359;BME280;37448;51.588;7.248;2023-07-22T07:27:05;100735.31;;;20.93;46.81
51359;BME280;37448;51.588;7.248;2023-07-22T07:29:06;100733.25;;;20.70;47.45
51359;BME280;37448;51.588;7.248;2023-07-22T07:31:06;100735.19;;;21.10;48.32
51359;BME280;37448;51.588;7.248;2023-07-22T07:33:06;100739.06;;;21.18;48.13
51359;BME280;37448;51.588;7.248;2023-07-22T07:35:07;100735.09;;;21.39;47.82
51359;BME280;37448;51.588;7.248;2023-07-22T07:37:08;100733.88;;;21.85;48.06
51359;BME280;37448;51.588;7.248;2023-07-22T07:39:08;100734.41;;;22.16;46.58
51359;BME280;37448;51.588;7.248;2023-07-22T07:41:10;100740.25;;;22.08;45.92
51359;BME280;37448;51.588;7.248;2023-07-22T07:43:14;100740.78;;;22.26;45.20
51359;BME280;37448;51.588;7.248;2023-07-22T07:45:14;100748.03;;;22.50;44.98
51359;BME280;37448;51.588;7.248;2023-07-22T07:47:15;100734.94;;;22.21;44.09
51359;BME280;37448;51.588;7.248;2023-07-22T07:49:15;100740.38;;;22.32;43.29
51359;BME280;37448;51.588;7.248;2023-07-22T07:51:17;100740.03;;;22.24;44.76
51359;BME280;37448;51.588;7.248;2023-07-22T07:53:18;100741.00;;;22.36;44.08
51359;BME280;37448;51.588;7.248;2023-07-22T07:55:18;100737.28;;;22.39;44.68
51359;BME280;37448;51.588;7.248;2023-07-22T07:57:19;100751.25;;;22.55;44.21
51359;BME280;37448;51.588;7.248;2023-07-22T07:59:19;100744.09;;;22.69;44.33
51359;BME280;37448;51.588;7.248;2023-07-22T08:01:19;100746.31;;;22.75;45.18
51359;BME280;37448;51.588;7.248;2023-07-22T08:03:21;100744.03;;;22.94;43.96
51359;BME280;37448;51.588;7.248;2023-07-22T08:05:21;100742.84;;;22.99;43.75
51359;BME280;37448;51.588;7.248;2023-07-22T08:09:22;100747.50;;;23.08;44.43
51359;BME280;37448;51.588;7.248;2023-07-22T08:11:22;100754.34;;;23.23;43.21
51359;BME280;37448;51.588;7.248;2023-07-22T08:13:23;100750.66;;;23.26;43.74
51359;BME280;37448;51.588;7.248;2023-07-22T08:15:23;100746.50;;;23.46;43.17
51359;BME280;37448;51.588;7.248;2023-07-22T08:17:24;100742.53;;;23.76;44.30
51359;BME280;37448;51.588;7.248;2023-07-22T08:19:24;100746.38;;;23.72;42.18
51359;BME280;37448;51.588;7.248;2023-07-22T08:21:24;100744.81;;;23.81;43.00
51359;BME280;37448;51.588;7.248;2023-07-22T08:23:25;100749.00;;;23.61;43.34
51359;BME280;37448;51.588;7.248;2023-07-22T08:25:25;100758.69;;;23.37;42.77
51359;BME280;37448;51.588;7.248;2023-07-22T08:27:26;100755.78;;;23.16;41.91
51359;BME280;37448;51.588;7.248;2023-07-22T08:29:26;100752.59;;;23.11;42.29
51359;BME280;37448;51.588;7.248;2023-07-22T08:31:26;100757.69;;;23.14;43.05
51359;BME280;37448;51.588;7.248;2023-07-22T08:33:27;100747.28;;;23.11;41.33
51359;BME280;37448;51.588;7.248;2023-07-22T08:35:27;100751.06;;;23.33;41.89
51359;BME280;37448;51.588;7.248;2023-07-22T08:37:28;100745.84;;;23.56;43.01
51359;BME280;37448;51.588;7.248;2023-07-22T08:39:28;100750.19;;;23.57;42.05
51359;BME280;37448;51.588;7.248;2023-07-22T08:41:29;100748.66;;;23.41;41.24
51359;BME280;37448;51.588;7.248;2023-07-22T08:43:30;100754.47;;;23.35;41.25
51359;BME280;37448;51.588;7.248;2023-07-22T08:45:33;100745.75;;;23.33;40.80
51359;BME280;37448;51.588;7.248;2023-07-22T08:47:45;100744.25;;;23.53;41.17
51359;BME280;37448;51.588;7.248;2023-07-22T08:49:51;100748.19;;;23.72;42.56
51359;BME280;37448;51.588;7.248;2023-07-22T08:51:54;100753.00;;;23.31;39.15
51359;BME280;37448;51.588;7.248;2023-07-22T08:53:58;100748.53;;;23.18;40.42
51359;BME280;37448;51.588;7.248;2023-07-22T08:56:00;100741.81;;;23.26;40.96
51359;BME280;37448;51.588;7.248;2023-07-22T08:58:01;100743.19;;;23.18;40.87
51359;BME280;37448;51.588;7.248;2023-07-22T09:00:02;100748.22;;;23.47;40.87
51359;BME280;37448;51.588;7.248;2023-07-22T09:02:10;100743.56;;;23.38;40.99
51359;BME280;37448;51.588;7.248;2023-07-22T09:04:12;100732.22;;;23.47;40.99
51359;BME280;37448;51.588;7.248;2023-07-22T09:06:12;100737.56;;;23.47;40.50
51359;BME280;37448;51.588;7.248;2023-07-22T09:08:13;100743.56;;;23.38;42.21
51359;BME280;37448;51.588;7.248;2023-07-22T09:10:15;100743.94;;;23.20;42.19
51359;BME280;37448;51.588;7.248;2023-07-22T09:12:16;100742.16;;;23.45;42.72
51359;BME280;37448;51.588;7.248;2023-07-22T09:14:18;100746.88;;;23.04;42.35
51359;BME280;37448;51.588;7.248;2023-07-22T09:16:19;100743.69;;;23.23;42.53
51359;BME280;37448;51.588;7.248;2023-07-22T09:18:20;100735.09;;;23.33;42.43
51359;BME280;37448;51.588;7.248;2023-07-22T09:20:21;100747.34;;;23.22;43.11
51359;BME280;37448;51.588;7.248;2023-07-22T09:22:25;100731.91;;;22.90;42.06
51359;BME280;37448;51.588;7.248;2023-07-22T09:24:27;100745.75;;;22.83;42.07
51359;BME280;37448;51.588;7.248;2023-07-22T09:26:32;100744.78;;;22.84;41.59
51359;BME280;37448;51.588;7.248;2023-07-22T09:28:48;100738.59;;;23.20;43.08
51359;BME280;37448;51.588;7.248;2023-07-22T09:30:48;100738.00;;;23.41;41.98
51359;BME280;37448;51.588;7.248;2023-07-22T09:32:49;100742.72;;;23.62;41.17
51359;BME280;37448;51.588;7.248;2023-07-22T09:34:55;100746.38;;;23.23;40.97
51359;BME280;37448;51.588;7.248;2023-07-22T09:36:58;100747.38;;;23.47;40.93
51359;BME280;37448;51.588;7.248;2023-07-22T09:39:03;100738.25;;;23.38;40.21
51359;BME280;37448;51.588;7.248;2023-07-22T09:41:03;100735.50;;;23.75;40.47
51359;BME280;37448;51.588;7.248;2023-07-22T09:43:04;100745.13;;;24.01;40.70
51359;BME280;37448;51.588;7.248;2023-07-22T09:45:05;100741.41;;;24.15;39.88
51359;BME280;37448;51.588;7.248;2023-07-22T09:47:06;100740.94;;;24.21;39.82
51359;BME280;37448;51.588;7.248;2023-07-22T09:49:09;100740.69;;;24.13;40.43
51359;BME280;37448;51.588;7.248;2023-07-22T09:51:15;100740.34;;;24.17;38.98
51359;BME280;37448;51.588;7.248;2023-07-22T09:53:16;100742.66;;;24.33;39.61
51359;BME280;37448;51.588;7.248;2023-07-22T09:55:19;100743.84;;;24.18;40.15
51359;BME280;37448;51.588;7.248;2023-07-22T09:57:20;100735.72;;;24.19;40.87
51359;BME280;37448;51.588;7.248;2023-07-22T09:59:21;100742.41;;;24.36;39.61
51359;BME280;37448;51.588;7.248;2023-07-22T10:01:24;100736.13;;;24.49;38.45
51359;BME280;37448;51.588;7.248;2023-07-22T10:03:29;100735.59;;;24.44;37.67
51359;BME280;37448;51.588;7.248;2023-07-22T10:05:33;100739.63;;;24.49;39.54
51359;BME280;37448;51.588;7.248;2023-07-22T10:07:35;100741.19;;;24.63;40.17
51359;BME280;37448;51.588;7.248;2023-07-22T10:09:37;100734.66;;;24.56;39.20
51359;BME280;37448;51.588;7.248;2023-07-22T10:11:39;100737.03;;;24.71;38.48
51359;BME280;37448;51.588;7.248;2023-07-22T10:13:39;100728.56;;;24.88;39.38
51359;BME280;37448;51.588;7.248;2023-07-22T10:15:40;100720.44;;;24.90;39.95
51359;BME280;37448;51.588;7.248;2023-07-22T10:17:41;100720.75;;;25.08;40.52
51359;BME280;37448;51.588;7.248;2023-07-22T10:19:42;100718.84;;;25.31;39.86
51359;BME280;37448;51.588;7.248;2023-07-22T10:21:44;100730.13;;;25.35;38.98
51359;BME280;37448;51.588;7.248;2023-07-22T10:23:47;100724.00;;;25.56;39.34
51359;BME280;37448;51.588;7.248;2023-07-22T10:25:48;100723.66;;;25.49;37.22
51359;BME280;37448;51.588;7.248;2023-07-22T10:27:51;100722.56;;;25.40;38.12
51359;BME280;37448;51.588;7.248;2023-07-22T10:29:54;100721.94;;;25.15;37.81
51359;BME280;37448;51.588;7.248;2023-07-22T10:31:57;100718.91;;;24.76;38.15
51359;BME280;37448;51.588;7.248;2023-07-22T10:33:58;100718.38;;;24.82;39.85
51359;BME280;37448;51.588;7.248;2023-07-22T10:36:06;100727.97;;;24.62;39.77